Date,TemperatureHighF,TemperatureAvgF,TemperatureLowF,DewpointHighF,DewpointAvgF,DewpointLowF,HumidityHigh,HumidityAvg,HumidityLow,PressureMaxIn,PressureMinIn,WindSpeedMaxMPH,WindSpeedAvgMPH,GustSpeedMaxMPH,PrecipitationSumIn
2013-2-1,73.4,49.8,37.0,59.2,43.3,33.5,88,79,60,30.18,30.09,5,0,5,0.00
2013-2-2,65.8,48.3,41.2,56.0,43.6,37.3,91,84,71,30.27,30.18,5,0,5,0.00
2013-2-3,68.7,50.2,40.6,56.3,45.3,37.3,94,84,64,30.24,30.12,6,1,6,0.00
2013-2-4,63.0,47.5,39.4,53.6,43.1,35.8,92,85,71,30.15,30.03,6,0,6,0.00
2013-2-5,63.7,50.0,42.3,53.4,45.4,38.4,94,85,71,30.15,30.00,5,1,5,0.00
2013-2-6,65.8,46.5,36.7,50.9,39.9,33.8,89,79,55,30.18,30.06,5,1,5,0.00
2013-2-7,60.6,47.2,37.9,60.1,45.7,35.0,98,95,79,30.12,29.94,5,2,5,0.21
2013-2-8,62.8,44.1,34.9,56.6,41.4,34.4,98,91,75,29.97,29.88,4,0,4,0.00
2013-2-9,66.0,44.2,33.1,49.2,36.2,29.4,90,75,48,30.06,29.97,13,1,13,0.00
2013-2-10,68.4,44.7,32.4,50.1,35.7,26.6,80,71,51,30.09,29.97,7,1,7,0.00
2013-2-11,71.8,48.9,36.7,48.9,36.3,29.5,76,63,41,30.21,30.06,9,1,9,0.00
2013-2-12,67.6,46.8,34.9,50.5,37.0,27.8,76,69,52,30.33,30.21,8,1,8,0.00
2013-2-13,70.7,48.1,35.4,51.6,38.5,29.4,79,70,49,30.33,30.18,6,1,6,0.00
2013-2-14,75.2,51.1,38.1,54.6,41.3,32.5,81,70,47,30.24,30.12,3,1,3,0.00
2013-2-15,75.6,52.3,38.8,55.2,41.3,32.3,78,67,46,30.27,30.18,8,1,8,0.00
2013-2-16,73.9,52.6,41.0,52.8,41.2,34.0,77,66,45,30.21,30.03,6,1,6,0.00
2013-2-17,69.4,48.7,37.9,50.1,37.2,31.0,77,66,46,30.03,29.94,8,1,8,0.00
2013-2-18,60.1,45.9,36.5,45.8,36.0,28.4,76,69,56,30.00,29.88,8,1,8,0.00
2013-2-19,52.2,42.7,34.9,51.3,40.8,32.3,98,93,72,29.91,29.71,15,2,15,0.00
2013-2-20,63.1,44.0,32.4,53.7,39.4,31.9,98,85,59,30.03,29.82,12,3,12,0.00
2013-2-21,66.9,47.6,35.4,48.0,37.6,31.5,86,70,46,30.15,30.03,8,2,8,0.00
2013-2-22,69.1,49.0,36.5,48.0,38.1,30.0,79,67,45,30.24,30.15,9,1,9,0.00
2013-2-23,66.2,50.0,40.6,44.6,36.9,28.3,79,62,42,30.24,30.15,12,3,12,0.00
2013-2-24,72.0,49.2,36.1,44.8,32.3,25.5,66,53,35,30.24,30.12,9,3,9,0.00
2013-2-25,72.9,49.9,37.0,48.6,34.8,25.8,67,57,39,30.24,30.12,8,2,8,0.00
2013-2-26,74.3,49.7,35.6,47.2,33.6,26.4,70,55,37,30.18,30.09,2,1,2,0.00
2013-2-27,73.9,51.9,36.7,48.8,35.3,24.9,66,54,38,30.33,30.18,6,1,6,0.00
2013-2-28,76.3,56.8,46.6,55.7,44.6,37.3,73,64,47,30.41,30.33,9,1,9,0.00